createdAt,value
2019-05-14T00:00:52.306Z,1.90
2019-05-14T00:03:22.036Z,1.87
2019-05-14T00:05:52.178Z,1.90
2019-05-14T00:08:22.203Z,1.70
2019-05-14T00:10:52.099Z,1.80
2019-05-14T00:13:21.576Z,2.17
2019-05-14T00:15:52.234Z,1.67
2019-05-14T00:18:23.539Z,2.30
2019-05-14T00:20:52.598Z,1.80
2019-05-14T00:23:34.305Z,1.57
2019-05-14T00:26:04.282Z,1.57
2019-05-14T00:28:33.881Z,1.67
2019-05-14T00:31:12.262Z,2.17
2019-05-14T00:33:42.237Z,1.63
2019-05-14T00:36:23.187Z,1.50
2019-05-14T00:39:06.336Z,1.80
2019-05-14T00:41:45.067Z,1.90
2019-05-14T00:44:14.268Z,1.80
2019-05-14T00:46:51.696Z,2.33
2019-05-14T00:49:21.199Z,1.80
2019-05-14T00:51:51.935Z,2.20
2019-05-14T00:54:21.526Z,1.70
2019-05-14T00:56:52.162Z,2.10
2019-05-14T00:59:21.660Z,1.83
2019-05-14T01:01:58.581Z,1.70
2019-05-14T01:04:27.538Z,1.83
2019-05-14T01:07:07.467Z,1.53
2019-05-14T01:09:36.573Z,1.73
2019-05-14T01:12:05.550Z,2.17
2019-05-14T01:14:34.488Z,1.47
2019-05-14T01:17:04.384Z,2.00
2019-05-14T01:19:33.945Z,1.83
2019-05-14T01:22:04.295Z,1.73
2019-05-14T01:24:33.825Z,2.13
2019-05-14T01:27:03.381Z,2.13
2019-05-14T01:29:32.558Z,2.07
2019-05-14T01:32:02.136Z,1.70
2019-05-14T01:34:32.549Z,2.40
2019-05-14T01:37:02.541Z,2.00
2019-05-14T01:39:32.380Z,1.90
2019-05-14T01:42:02.590Z,1.97
2019-05-14T01:44:32.264Z,1.97
2019-05-14T01:47:02.065Z,2.13
2019-05-14T01:49:31.845Z,1.87
2019-05-14T01:52:01.747Z,1.90
2019-05-14T01:54:36.162Z,1.90
2019-05-14T01:57:03.726Z,2.13
2019-05-14T01:59:43.087Z,2.20
2019-05-14T02:02:12.032Z,1.83
2019-05-14T02:04:42.664Z,2.00
2019-05-14T02:07:21.936Z,2.37
2019-05-14T02:16:16.790Z,2.00
2019-05-14T02:18:46.630Z,1.90
2019-05-14T02:21:16.145Z,1.90
2019-05-14T02:23:53.158Z,2.00
2019-05-14T02:26:22.196Z,1.90
2019-05-14T02:28:59.005Z,2.00
2019-05-14T02:31:29.333Z,2.40
2019-05-14T02:33:59.189Z,1.90
2019-05-14T02:36:30.835Z,2.07
2019-05-14T02:39:00.758Z,1.83
2019-05-14T02:41:30.683Z,2.30
2019-05-14T02:44:00.341Z,2.23
2019-05-14T02:46:29.989Z,2.37
2019-05-14T02:49:06.129Z,2.50
2019-05-14T02:51:35.100Z,2.10
2019-05-14T02:54:04.649Z,2.30
2019-05-14T02:56:33.633Z,2.10
2019-05-14T02:59:05.618Z,2.00
2019-05-14T03:01:34.237Z,2.77
2019-05-14T03:04:04.048Z,2.43
2019-05-14T03:06:34.247Z,2.03
2019-05-14T03:09:10.096Z,2.37
2019-05-14T03:11:48.304Z,2.23
2019-05-14T03:14:19.304Z,2.47
2019-05-14T03:16:49.460Z,2.20
2019-05-14T03:19:19.561Z,2.40
2019-05-14T03:21:55.012Z,2.60
2019-05-14T03:24:24.662Z,3.40
2019-05-14T03:26:55.212Z,2.20
2019-05-14T03:29:30.392Z,2.10
2019-05-14T03:32:02.845Z,2.13
2019-05-14T03:34:33.184Z,3.37
2019-05-14T03:37:03.006Z,2.50
2019-05-14T03:39:31.118Z,2.40
2019-05-14T03:42:00.018Z,2.67
2019-05-14T03:44:29.575Z,2.53
2019-05-14T03:47:10.432Z,2.60
2019-05-14T03:49:49.834Z,1.80
2019-05-14T03:52:20.063Z,2.43
2019-05-14T03:54:49.935Z,2.17
2019-05-14T03:57:20.194Z,2.50
2019-05-14T03:59:50.145Z,3.17
2019-05-14T04:02:20.616Z,2.97
2019-05-14T04:04:50.630Z,2.63
2019-05-14T04:07:30.339Z,2.60
2019-05-14T04:10:00.629Z,2.93
2019-05-14T04:12:32.769Z,2.80
2019-05-14T04:15:21.660Z,2.67
2019-05-14T04:17:51.582Z,3.23
2019-05-14T04:20:21.005Z,2.40
2019-05-14T04:23:00.115Z,2.90
2019-05-14T04:25:29.765Z,3.30
2019-05-14T04:28:09.868Z,3.17
2019-05-14T04:30:41.468Z,3.40
2019-05-14T04:33:11.354Z,3.20
2019-05-14T04:35:40.687Z,3.47
2019-05-14T04:38:10.357Z,3.37
2019-05-14T04:40:40.101Z,3.30
2019-05-14T04:43:10.315Z,3.00
2019-05-14T04:45:42.190Z,3.40
2019-05-14T04:48:27.242Z,3.60
2019-05-14T04:50:43.010Z,3.87
2019-05-14T04:53:12.634Z,3.10
2019-05-14T04:55:42.540Z,3.97
2019-05-14T04:58:11.430Z,3.47
2019-05-14T05:00:40.313Z,3.23
2019-05-14T05:03:12.589Z,3.40
2019-05-14T05:05:40.569Z,3.47
2019-05-14T05:08:14.011Z,3.77
2019-05-14T05:10:49.446Z,3.33
2019-05-14T05:13:19.378Z,3.97
2019-05-14T05:15:59.107Z,3.60
2019-05-14T05:18:29.447Z,3.80
2019-05-14T05:20:58.465Z,3.97
2019-05-14T05:23:28.412Z,4.40
2019-05-14T05:26:04.925Z,3.57
2019-05-14T05:28:33.853Z,4.33
2019-05-14T05:31:02.745Z,4.33
2019-05-14T05:33:32.317Z,4.07
2019-05-14T05:36:01.954Z,4.07
2019-05-14T05:38:39.665Z,4.63
2019-05-14T05:41:09.189Z,4.43
2019-05-14T05:43:48.198Z,4.63
2019-05-14T05:46:23.569Z,4.87
2019-05-14T05:48:52.636Z,4.07
2019-05-14T05:51:29.377Z,4.90
2019-05-14T05:53:59.293Z,4.50
2019-05-14T05:56:28.984Z,5.00
2019-05-14T05:59:00.623Z,4.80
2019-05-14T06:01:42.214Z,3.40
2019-05-14T06:03:59.836Z,3.80
2019-05-14T06:06:29.403Z,3.87
2019-05-14T06:08:58.942Z,3.87
2019-05-14T06:11:29.731Z,3.90
2019-05-14T06:13:59.254Z,3.60
2019-05-14T06:16:29.021Z,4.10
2019-05-14T06:18:58.932Z,3.70
2019-05-14T06:21:29.222Z,3.97
2019-05-14T06:24:09.008Z,4.10
2019-05-14T06:26:38.656Z,4.20
2019-05-14T06:29:08.470Z,3.60
2019-05-14T06:31:39.054Z,4.10
2019-05-14T06:34:10.848Z,4.23
2019-05-14T06:36:40.509Z,4.00
2019-05-14T06:39:10.132Z,3.73
2019-05-14T06:41:42.831Z,3.50
2019-05-14T06:44:11.145Z,4.07
2019-05-14T06:46:40.043Z,4.40
2019-05-14T06:49:09.682Z,4.47
2019-05-14T06:51:48.734Z,4.80
2019-05-14T06:54:19.623Z,4.30
2019-05-14T06:56:49.041Z,3.93
2019-05-14T06:59:18.591Z,4.03
2019-05-14T07:01:49.029Z,4.47
2019-05-14T07:04:18.630Z,3.80
2019-05-14T07:06:49.145Z,4.70
2019-05-14T07:09:18.689Z,3.67
2019-05-14T07:11:49.294Z,4.47
2019-05-14T07:14:18.944Z,5.00
2019-05-14T07:16:53.187Z,4.97
2019-05-14T07:19:22.424Z,4.63
2019-05-14T07:21:52.037Z,4.20
2019-05-14T07:24:21.599Z,4.33
2019-05-14T07:26:51.186Z,4.30
2019-05-14T07:29:20.089Z,4.27
2019-05-14T07:31:49.781Z,3.90
2019-05-14T07:34:19.544Z,4.20
2019-05-14T07:36:49.269Z,4.00
2019-05-14T07:39:24.257Z,5.23
2019-05-14T07:41:53.852Z,4.50
2019-05-14T07:44:23.530Z,4.50
2019-05-14T07:46:53.110Z,4.70
2019-05-14T07:49:22.676Z,5.13
2019-05-14T07:51:52.229Z,4.30
2019-05-14T07:54:21.777Z,4.50
2019-05-14T07:56:53.046Z,5.37
2019-05-14T07:59:22.688Z,5.10
2019-05-14T08:01:52.345Z,5.10
2019-05-14T08:04:22.232Z,5.43
2019-05-14T08:06:51.105Z,5.87
2019-05-14T08:09:20.665Z,5.60
2019-05-14T08:11:50.519Z,5.10
2019-05-14T08:14:20.564Z,5.00
2019-05-14T08:16:49.467Z,5.87
2019-05-14T08:19:26.563Z,5.37
2019-05-14T08:21:50.262Z,4.90
2019-05-14T08:24:26.299Z,4.97
2019-05-14T08:26:51.032Z,4.70
2019-05-14T08:29:19.949Z,5.07
2019-05-14T08:31:49.531Z,4.97
2019-05-14T08:34:19.461Z,4.77
2019-05-14T08:36:49.027Z,5.27
2019-05-14T08:39:18.756Z,5.63
2019-05-14T08:41:56.070Z,6.27
2019-05-14T08:44:19.723Z,5.60
2019-05-14T08:46:58.970Z,5.50
2019-05-14T08:49:38.932Z,5.77
2019-05-14T08:51:59.700Z,6.20
2019-05-14T08:54:38.825Z,4.80
2019-05-14T08:57:09.827Z,5.50
2019-05-14T08:59:39.543Z,5.13
2019-05-14T09:02:14.357Z,5.50
2019-05-14T09:04:53.877Z,5.07
2019-05-14T09:07:19.707Z,6.00
2019-05-14T09:09:49.254Z,6.20
2019-05-14T09:12:18.934Z,6.07
2019-05-14T09:14:48.487Z,5.53
2019-05-14T09:17:18.713Z,6.30
2019-05-14T09:20:02.365Z,5.40
2019-05-14T09:22:19.547Z,5.60
2019-05-14T09:24:49.375Z,5.77
2019-05-14T09:27:19.537Z,5.57
2019-05-14T09:29:49.129Z,5.13
2019-05-14T09:32:19.294Z,5.60
2019-05-14T09:34:49.922Z,5.07
2019-05-14T09:37:19.366Z,4.93
2019-05-14T09:40:08.755Z,4.60
2019-05-14T09:42:42.446Z,5.87
2019-05-14T09:45:12.174Z,5.70
2019-05-14T09:47:41.717Z,5.53
2019-05-14T09:50:22.762Z,5.70
2019-05-14T09:52:42.041Z,4.87
2019-05-14T09:55:11.695Z,4.70
2019-05-14T09:57:41.646Z,5.13
2019-05-14T10:00:14.634Z,5.60
2019-05-14T10:02:44.264Z,5.27
2019-05-14T10:05:13.261Z,5.43
2019-05-14T10:07:42.969Z,4.93
2019-05-14T10:10:12.558Z,7.13
2019-05-14T10:12:52.662Z,5.43
2019-05-14T10:15:12.118Z,4.63
2019-05-14T10:17:41.313Z,4.47
2019-05-14T10:20:11.673Z,4.03
2019-05-14T10:22:40.561Z,5.47
2019-05-14T10:25:10.230Z,4.30
2019-05-14T10:27:39.121Z,4.37
2019-05-14T10:30:10.505Z,4.03
2019-05-14T10:32:41.227Z,4.57
2019-05-14T10:35:11.134Z,4.30
2019-05-14T10:37:40.251Z,4.43
2019-05-14T10:40:10.817Z,4.17
2019-05-14T10:42:40.451Z,4.87
2019-05-14T10:45:12.863Z,4.67
2019-05-14T10:47:42.354Z,4.90
2019-05-14T10:50:13.676Z,5.33
2019-05-14T10:52:43.979Z,4.63
2019-05-14T10:55:23.625Z,4.57
2019-05-14T10:57:43.746Z,4.27
2019-05-14T11:00:13.557Z,5.03
2019-05-14T11:02:43.510Z,4.97
2019-05-14T11:05:13.328Z,4.80
2019-05-14T11:07:47.997Z,5.00
2019-05-14T11:10:19.511Z,4.13
2019-05-14T11:12:52.795Z,5.10
2019-05-14T11:15:20.893Z,4.20
2019-05-14T11:17:49.798Z,4.57
2019-05-14T11:20:19.909Z,6.37
2019-05-14T11:22:49.469Z,4.03
2019-05-14T11:25:19.623Z,4.40
2019-05-14T11:27:54.741Z,3.77
2019-05-14T11:30:29.875Z,3.93
2019-05-14T11:32:59.603Z,3.30
2019-05-14T11:35:29.618Z,3.80
2019-05-14T11:38:28.658Z,3.67
2019-05-14T11:40:49.529Z,4.07
2019-05-14T11:43:19.331Z,3.73
2019-05-14T11:45:48.651Z,3.20
2019-05-14T11:48:19.316Z,3.30
2019-05-14T11:50:49.341Z,2.90
2019-05-14T11:53:19.847Z,3.53
2019-05-14T11:55:50.508Z,4.27
2019-05-14T11:58:29.408Z,4.50
2019-05-14T12:00:58.560Z,4.20
2019-05-14T12:03:28.675Z,3.73
2019-05-14T12:05:58.868Z,3.63
2019-05-14T12:08:41.531Z,4.00
2019-05-14T12:11:08.778Z,4.40
2019-05-14T12:13:39.396Z,3.70
2019-05-14T12:16:09.745Z,3.67
2019-05-14T12:18:41.806Z,3.63
2019-05-14T12:21:09.854Z,3.07
2019-05-14T12:23:39.362Z,3.50
2019-05-14T12:26:09.539Z,4.40
2019-05-14T12:28:39.482Z,4.10
2019-05-14T12:31:09.588Z,3.53
2019-05-14T12:33:39.693Z,3.70
2019-05-14T12:36:10.328Z,3.50
2019-05-14T12:38:40.548Z,4.13
2019-05-14T12:41:10.281Z,3.37
2019-05-14T12:43:43.689Z,3.90
2019-05-14T12:46:11.535Z,4.07
2019-05-14T12:48:41.474Z,3.30
2019-05-14T12:51:11.513Z,3.90
2019-05-14T12:53:41.271Z,3.53
2019-05-14T12:56:10.573Z,3.40
2019-05-14T12:58:46.042Z,3.87
2019-05-14T13:01:20.015Z,4.10
2019-05-14T13:03:48.572Z,3.67
2019-05-14T13:06:19.028Z,4.27
2019-05-14T13:08:49.266Z,4.03
2019-05-14T13:11:18.352Z,3.53
2019-05-14T13:13:58.349Z,3.80
2019-05-14T13:16:30.605Z,4.13
2019-05-14T13:19:00.281Z,3.87
2019-05-14T13:21:29.321Z,4.13
2019-05-14T13:23:58.213Z,3.50
2019-05-14T13:26:29.412Z,3.60
2019-05-14T13:28:59.024Z,3.80
2019-05-14T13:31:29.300Z,3.90
2019-05-14T13:33:59.376Z,3.30
2019-05-14T13:36:28.904Z,3.80
2019-05-14T13:38:59.549Z,3.60
2019-05-14T13:41:29.799Z,3.60
2019-05-14T13:43:59.052Z,3.33
2019-05-14T13:46:28.907Z,3.67
2019-05-14T13:48:59.278Z,3.23
2019-05-14T13:51:32.977Z,3.40
2019-05-14T13:53:59.196Z,3.47
2019-05-14T13:56:28.433Z,3.60
2019-05-14T13:58:59.599Z,3.30
2019-05-14T14:01:29.893Z,3.17
2019-05-14T14:04:10.239Z,3.87
2019-05-14T14:06:30.674Z,3.30
2019-05-14T14:09:00.914Z,3.50
2019-05-14T14:11:31.537Z,3.20
2019-05-14T14:14:01.179Z,3.00
2019-05-14T14:16:42.151Z,2.93
2019-05-14T14:19:12.206Z,3.33
2019-05-14T14:21:41.172Z,3.10
2019-05-14T14:24:10.774Z,2.93
2019-05-14T14:26:48.920Z,3.10
2019-05-14T14:29:18.885Z,2.97
2019-05-14T14:31:49.180Z,3.03
2019-05-14T14:34:18.311Z,3.20
2019-05-14T14:36:49.926Z,3.90
2019-05-14T14:39:19.141Z,2.87
2019-05-14T14:41:48.872Z,2.70
2019-05-14T14:44:19.127Z,2.97
2019-05-14T14:46:49.204Z,3.40
2019-05-14T14:49:19.159Z,2.90
2019-05-14T14:51:49.296Z,2.90
2019-05-14T14:54:21.134Z,2.73
2019-05-14T14:56:59.186Z,3.07
2019-05-14T14:59:30.349Z,3.10
2019-05-14T15:02:10.210Z,2.63
2019-05-14T15:04:39.915Z,2.57
2019-05-14T15:07:29.644Z,2.90
2019-05-14T15:09:59.645Z,2.70
2019-05-14T15:12:39.818Z,2.37
2019-05-14T15:15:08.526Z,2.97
2019-05-14T15:17:39.281Z,2.67
2019-05-14T15:20:10.472Z,2.57
2019-05-14T15:22:39.552Z,2.83
2019-05-14T15:25:11.742Z,2.60
2019-05-14T15:27:42.836Z,3.00
2019-05-14T15:30:12.494Z,2.80
2019-05-14T15:32:43.205Z,2.90
2019-05-14T15:35:12.162Z,2.87
2019-05-14T15:37:48.694Z,2.70
2019-05-14T15:40:22.018Z,2.97
2019-05-14T15:42:49.717Z,2.97
2019-05-14T15:45:19.674Z,2.90
2019-05-14T15:47:48.787Z,3.10
2019-05-14T15:50:20.100Z,3.03
2019-05-14T15:52:55.911Z,3.13
2019-05-14T15:55:25.724Z,3.40
2019-05-14T15:58:00.615Z,3.20
2019-05-14T16:00:38.738Z,2.93
2019-05-14T16:03:08.929Z,3.00
2019-05-14T16:05:39.418Z,2.73
2019-05-14T16:08:09.461Z,2.90
2019-05-14T16:10:39.840Z,2.50
2019-05-14T16:13:09.026Z,2.93
2019-05-14T16:15:38.910Z,2.70
2019-05-14T16:18:18.480Z,2.73
2019-05-14T16:20:44.630Z,2.93
2019-05-14T16:23:13.574Z,2.73
2019-05-14T16:25:42.598Z,3.07
2019-05-14T16:28:13.014Z,2.77
2019-05-14T16:30:42.768Z,2.70
2019-05-14T16:33:11.696Z,3.07
2019-05-14T16:35:41.713Z,2.30
2019-05-14T16:38:16.124Z,2.47
2019-05-14T16:40:42.378Z,2.50
2019-05-14T16:43:11.863Z,2.10
2019-05-14T16:45:40.792Z,2.60
2019-05-14T16:48:13.629Z,3.37
2019-05-14T16:50:42.799Z,2.40
2019-05-14T16:53:11.968Z,2.23
2019-05-14T16:55:41.587Z,2.20
2019-05-14T16:58:10.665Z,2.23
2019-05-14T17:00:42.119Z,2.50
2019-05-14T17:03:19.142Z,2.20
2019-05-14T17:05:48.697Z,2.67
2019-05-14T17:08:21.235Z,2.47
2019-05-14T17:10:53.203Z,2.23
2019-05-14T17:13:22.831Z,2.20
2019-05-14T17:15:51.767Z,2.37
2019-05-14T17:18:21.999Z,2.30
2019-05-14T17:20:51.809Z,2.47
2019-05-14T17:23:21.402Z,2.27
2019-05-14T17:25:51.034Z,2.30
2019-05-14T17:28:20.984Z,2.60
2019-05-14T17:30:55.781Z,2.63
2019-05-14T17:33:24.964Z,2.23
2019-05-14T17:35:54.636Z,2.30
2019-05-14T17:38:30.491Z,2.10
2019-05-14T17:40:59.849Z,2.43
2019-05-14T17:43:30.272Z,2.47
2019-05-14T17:45:59.245Z,2.30
2019-05-14T17:48:28.978Z,2.67
2019-05-14T17:51:02.982Z,2.30
2019-05-14T17:53:31.931Z,2.13
2019-05-14T17:56:00.839Z,2.60
2019-05-14T17:58:31.079Z,2.60
2019-05-14T18:01:13.357Z,2.10
2019-05-14T18:03:43.186Z,2.20
2019-05-14T18:06:12.519Z,2.30
2019-05-14T18:08:42.129Z,2.50
2019-05-14T18:11:11.288Z,2.17
2019-05-14T18:13:41.390Z,2.10
2019-05-14T18:16:19.209Z,2.40
2019-05-14T18:18:49.405Z,2.40
2019-05-14T18:21:28.262Z,2.33
2019-05-14T18:23:58.582Z,2.30
2019-05-14T18:26:38.603Z,1.73
2019-05-14T18:29:08.815Z,2.13
2019-05-14T18:31:44.477Z,1.90
2019-05-14T18:34:15.011Z,1.90
2019-05-14T18:36:44.743Z,2.20
2019-05-14T18:39:17.217Z,1.97
2019-05-14T18:41:45.809Z,2.20
2019-05-14T18:44:18.806Z,3.23
2019-05-14T18:46:54.053Z,1.90
2019-05-14T18:49:23.642Z,2.57
2019-05-14T18:51:52.705Z,2.30
2019-05-14T18:54:34.016Z,2.20
2019-05-14T18:57:14.364Z,2.20
2019-05-14T18:59:42.561Z,2.27
2019-05-14T19:02:18.444Z,2.40
2019-05-14T19:04:57.788Z,2.37
2019-05-14T19:07:35.274Z,2.50
2019-05-14T19:10:15.659Z,2.10
2019-05-14T19:12:51.462Z,2.20
2019-05-14T19:15:27.207Z,2.00
2019-05-14T19:18:12.192Z,2.00
2019-05-14T19:20:42.608Z,2.10
2019-05-14T19:23:12.194Z,2.03
2019-05-14T19:25:41.794Z,2.30
2019-05-14T19:28:11.441Z,2.30
2019-05-14T19:30:41.011Z,2.13
2019-05-14T19:33:15.873Z,2.20
2019-05-14T19:35:48.379Z,1.70
2019-05-14T19:38:17.981Z,1.90
2019-05-14T19:40:48.424Z,1.90
2019-05-14T19:43:19.108Z,2.07
2019-05-14T19:45:48.959Z,2.07
2019-05-14T19:48:18.897Z,2.13
2019-05-14T19:50:49.181Z,2.00
2019-05-14T19:53:19.230Z,2.20
2019-05-14T19:55:48.776Z,2.73
2019-05-14T19:58:20.120Z,3.97
2019-05-14T20:00:49.305Z,3.27
2019-05-14T20:03:19.094Z,2.40
2019-05-14T20:05:48.142Z,3.30
2019-05-14T20:08:18.908Z,4.83
2019-05-14T20:10:48.999Z,5.33
2019-05-14T20:13:29.136Z,4.17
2019-05-14T20:15:59.190Z,3.20
2019-05-14T20:18:29.064Z,2.93
2019-05-14T20:20:59.092Z,2.80
2019-05-14T20:23:29.228Z,2.90
2019-05-14T20:25:59.966Z,2.80
2019-05-14T20:28:29.605Z,3.30
2019-05-14T20:31:10.004Z,3.83
2019-05-14T20:33:41.924Z,4.23
2019-05-14T20:36:14.561Z,3.67
2019-05-14T20:38:44.578Z,4.50
2019-05-14T20:41:17.652Z,3.93
2019-05-14T20:43:48.011Z,3.93
2019-05-14T20:46:21.884Z,5.63
2019-05-14T20:48:48.891Z,3.10
2019-05-14T20:51:20.472Z,3.07
2019-05-14T20:53:58.202Z,3.17
2019-05-14T20:56:28.546Z,3.30
2019-05-14T20:58:58.949Z,4.00
2019-05-14T21:01:29.478Z,3.27
2019-05-14T21:03:59.479Z,2.97
2019-05-14T21:06:29.613Z,3.10
2019-05-14T21:09:00.049Z,2.73
2019-05-14T21:11:39.349Z,2.67
2019-05-14T21:14:09.310Z,3.17
2019-05-14T21:16:39.655Z,3.27
2019-05-14T21:19:09.570Z,2.57
2019-05-14T21:21:41.823Z,2.50
2019-05-14T21:24:11.674Z,2.80
2019-05-14T21:26:41.790Z,2.27
2019-05-14T21:29:18.509Z,1.93
2019-05-14T21:31:47.682Z,2.17
2019-05-14T21:34:17.690Z,1.93
2019-05-14T21:36:47.037Z,2.10
2019-05-14T21:39:26.998Z,2.10
2019-05-14T21:42:05.222Z,2.73
2019-05-14T21:44:34.379Z,2.20
2019-05-14T21:47:05.215Z,2.50
2019-05-14T21:49:34.272Z,2.40
2019-05-14T21:52:04.125Z,2.20
2019-05-14T21:54:33.189Z,1.97
2019-05-14T21:57:08.558Z,2.23
2019-05-14T21:59:38.987Z,1.80
2019-05-14T22:02:21.475Z,2.20
2019-05-14T22:04:41.523Z,2.20
2019-05-14T22:07:11.899Z,2.07
2019-05-14T22:09:41.352Z,1.87
2019-05-14T22:12:12.614Z,2.17
2019-05-14T22:14:42.496Z,2.30
2019-05-14T22:17:11.833Z,1.90
2019-05-14T22:19:42.442Z,2.30
2019-05-14T22:22:12.598Z,2.47
2019-05-14T22:24:48.897Z,2.80
2019-05-14T22:27:18.820Z,2.47
2019-05-14T22:29:53.427Z,2.40
2019-05-14T22:32:23.312Z,2.10
2019-05-14T22:34:58.437Z,2.20
2019-05-14T22:37:28.055Z,2.63
2019-05-14T22:39:59.037Z,3.60
2019-05-14T22:42:29.009Z,3.83
2019-05-14T22:45:03.110Z,2.03
2019-05-14T22:47:32.238Z,2.00
2019-05-14T22:50:02.234Z,2.30
2019-05-14T22:52:32.424Z,2.43
2019-05-14T22:55:07.978Z,2.20
2019-05-14T22:57:44.026Z,2.50
2019-05-14T23:00:13.720Z,2.57
2019-05-14T23:02:43.848Z,2.20
2019-05-14T23:05:14.771Z,1.80
2019-05-14T23:07:45.814Z,2.20
2019-05-14T23:10:18.229Z,2.20
2019-05-14T23:12:49.678Z,2.50
2019-05-14T23:15:19.592Z,2.30
2019-05-14T23:17:49.510Z,2.50
2019-05-14T23:20:19.685Z,3.57
2019-05-14T23:22:49.938Z,4.10
2019-05-14T23:25:19.752Z,3.17
2019-05-14T23:27:49.894Z,5.70
2019-05-14T23:30:28.754Z,3.27
2019-05-14T23:33:00.807Z,3.60
2019-05-14T23:35:30.012Z,3.13
2019-05-14T23:38:08.335Z,3.37
2019-05-14T23:40:38.725Z,3.30
2019-05-14T23:43:08.840Z,5.10
2019-05-14T23:45:44.742Z,5.40
2019-05-14T23:48:13.756Z,6.30
2019-05-14T23:50:43.326Z,4.37
2019-05-14T23:53:13.090Z,7.97
2019-05-14T23:55:42.675Z,5.53
2019-05-14T23:58:20.743Z,4.90
